Holsbeek, Belgium
Current Conditions -  °F | °C
As of 9:20 PM on Saturday 25 Oct 2014 (Local Time) from EBBR Reporting Station
Broken Clouds Broken Clouds  
Wind Chill: 52°   Ceiling: 4400
Heat Index: 52°   Visibility: 6mi
Dew Point: 48°   Wind: 5mph
Humidity: 88%   Direction: 200°SSW
Pressure: 30.18"   Gusts: NA
Location:  50.92°N, 4.76°E
Report Text: EBBR 251920Z 20004KT 9999 SCT034 BKN044 11/09 Q1022 NOSIG
Loading
Personal Weather Stations






























Interactive Weather Map New forecast layout! Learn more

10-Day Weather Forecast

Advertisements
Track Severe Weather on mobile